Time;durP1;ratioP1;P1;durP2;ratioP2;P2;SDS_P1;SDS_P2;PMS_P1;PMS_P2;Temp;Humidity;BMP_temperature;BMP_pressure;BME280_temperature;BME280_humidity;BME280_pressure;Samples;Min_cycle;Max_cycle;Signal;HPM_P1;HPM_P2
2021/05/28 05:03:16;;;;;;;4.10;3.80;;;;;;;21.59;73.30;100050.31;1837980;77;22355;-74
2021/05/28 05:05:44;;;;;;;8.05;6.62;;;;;;;21.40;74.12;100053.67;1806162;77;20967;-73
2021/05/28 05:08:11;;;;;;;9.53;4.95;;;;;;;21.16;74.09;100046.36;1802620;78;21092;-69
2021/05/28 05:10:38;;;;;;;4.37;3.98;;;;;;;21.16;74.09;100046.36;1816435;77;21035;-72
2021/05/28 05:13:12;;;;;;;4.50;4.10;;;;;;;21.09;74.82;100043.49;1806018;77;20964;-70
2021/05/28 05:15:41;;;;;;;4.30;3.90;;;;;;;21.04;75.03;100040.47;1814345;78;20993;-75
2021/05/28 05:18:10;;;;;;;6.10;5.58;;;;;;;21.06;74.96;100040.32;1813792;78;20899;-80
2021/05/28 05:20:37;;;;;;;7.20;6.50;;;;;;;21.07;75.74;100041.98;1802051;78;21452;-68
2021/05/28 05:23:05;;;;;;;4.53;4.22;;;;;;;21.34;74.34;100039.72;1801836;77;20967;-78
2021/05/28 05:25:32;;;;;;;4.78;4.37;;;;;;;21.34;74.34;100039.72;1808157;77;21673;-76
2021/05/28 05:27:59;;;;;;;4.20;3.80;;;;;;;21.44;74.22;100039.14;1808452;77;21566;-76
2021/05/28 05:30:26;;;;;;;4.87;4.47;;;;;;;21.56;74.52;100036.08;1810515;78;21470;-81
2021/05/28 05:32:53;;;;;;;3.95;3.52;;;;;;;21.85;73.61;100041.03;1817023;77;21071;-65
2021/05/28 05:35:20;;;;;;;6.12;4.28;;;;;;;21.85;73.61;100041.03;1809934;78;21019;-75
2021/05/28 05:37:48;;;;;;;5.83;3.83;;;;;;;22.01;72.78;100044.73;1807585;78;20969;-81
2021/05/28 05:40:15;;;;;;;3.80;3.45;;;;;;;22.19;71.95;100038.88;1819956;78;20965;-79
2021/05/28 05:42:42;;;;;;;4.35;3.30;;;;;;;22.44;71.62;100036.62;1804554;78;21043;-70
2021/05/28 05:45:13;;;;;;;3.58;3.10;;;;;;;22.74;70.43;100043.16;1808316;78;21030;-79
2021/05/28 05:47:43;;;;;;;7.50;3.52;;;;;;;23.16;69.71;100035.58;1812736;78;20921;-80
2021/05/28 05:50:12;;;;;;;3.75;3.45;;;;;;;23.71;66.62;100038.81;1804439;78;21037;-74
2021/05/28 05:52:40;;;;;;;3.75;3.45;;;;;;;24.16;64.40;100038.15;1811062;77;21030;-76
2021/05/28 05:55:09;;;;;;;5.12;4.58;;;;;;;24.63;63.20;100045.24;1772990;77;21011;-72
2021/05/28 05:57:37;;;;;;;5.60;4.60;;;;;;;25.21;60.92;100036.64;1811238;77;22017;-80
2021/05/28 06:00:06;;;;;;;5.67;3.75;;;;;;;25.75;59.45;100041.30;1808362;77;21039;-71
2021/05/28 06:02:36;;;;;;;3.62;3.33;;;;;;;26.12;57.30;100043.02;1801308;77;20987;-71
2021/05/28 06:05:04;;;;;;;3.17;2.92;;;;;;;26.21;56.63;100047.75;1784799;79;21074;-71
2021/05/28 06:07:31;;;;;;;2.42;2.20;;;;;;;26.17;55.64;100041.95;1800017;79;20980;-71
2021/05/28 06:09:58;;;;;;;2.58;2.35;;;;;;;25.98;55.76;100043.88;1779874;79;21029;-81
2021/05/28 06:12:25;;;;;;;4.92;2.30;;;;;;;25.79;54.97;100041.25;1789055;79;21063;-73
2021/05/28 06:14:53;;;;;;;3.30;3.05;;;;;;;25.64;55.71;100035.08;1789121;79;20992;-73
2021/05/28 06:17:20;;;;;;;2.65;2.45;;;;;;;25.55;56.11;100038.33;1802386;79;20913;-72
2021/05/28 06:19:48;;;;;;;2.60;2.40;;;;;;;25.51;55.78;100035.70;1795554;79;20965;-73
2021/05/28 06:22:21;;;;;;;2.10;2.00;;;;;;;25.61;55.55;100039.41;1799517;79;21760;-76
2021/05/28 06:24:44;;;;;;;5.83;2.30;;;;;;;25.67;55.55;100034.72;1800550;79;21542;-73
2021/05/28 06:27:11;;;;;;;3.30;2.47;;;;;;;25.83;55.15;100031.88;1796685;79;21416;-78
2021/05/28 06:29:38;;;;;;;2.90;2.62;;;;;;;26.02;55.73;100028.30;1793325;79;20960;-76
2021/05/28 06:32:07;;;;;;;3.17;2.87;;;;;;;26.22;54.43;100033.39;1793817;79;21288;-80
2021/05/28 06:34:37;;;;;;;2.58;2.22;;;;;;;26.23;54.33;100033.20;1798406;78;21038;-79
2021/05/28 06:37:05;;;;;;;2.60;2.40;;;;;;;26.14;53.74;100034.31;1805752;79;20997;-75
2021/05/28 06:39:32;;;;;;;2.52;2.22;;;;;;;26.04;53.48;100034.28;1805473;78;21421;-73
2021/05/28 06:41:59;;;;;;;3.30;2.72;;;;;;;25.93;53.93;100033.44;1799813;79;21044;-72
2021/05/28 06:44:27;;;;;;;7.33;2.65;;;;;;;25.76;54.34;100031.45;1805507;79;21051;-70
2021/05/28 06:46:54;;;;;;;2.55;2.35;;;;;;;25.58;54.36;100035.80;1787124;79;21401;-78
2021/05/28 06:49:26;;;;;;;2.90;2.62;;;;;;;25.63;53.95;100030.72;1772028;80;21616;-76
2021/05/28 06:51:53;;;;;;;3.33;3.00;;;;;;;26.02;53.30;100030.97;1800706;79;21047;-76
2021/05/28 06:54:20;;;;;;;2.90;2.70;;;;;;;26.40;52.24;100027.14;1791563;79;21036;-79
2021/05/28 06:56:48;;;;;;;3.27;2.90;;;;;;;26.62;51.80;100028.02;1786953;79;21085;-75
2021/05/28 06:59:15;;;;;;;2.98;2.52;;;;;;;26.57;51.46;100027.24;1727226;81;21851;-69
2021/05/28 07:01:44;;;;;;;3.08;2.77;;;;;;;26.46;52.19;100022.89;1749319;79;21612;-81
2021/05/28 07:04:11;;;;;;;6.53;2.77;;;;;;;26.41;51.65;100026.64;1750791;80;20991;-79
2021/05/28 07:06:38;;;;;;;2.83;2.20;;;;;;;26.40;51.87;100020.98;1753518;79;21014;-76
2021/05/28 07:09:07;;;;;;;3.05;2.12;;;;;;;26.46;51.72;100016.22;1756191;80;21065;-77
2021/05/28 07:11:37;;;;;;;2.58;2.37;;;;;;;26.50;51.58;100014.32;1754016;80;21052;-77
2021/05/28 07:14:06;;;;;;;4.22;2.62;;;;;;;26.54;50.49;100018.27;1751980;79;21085;-75
2021/05/28 07:16:34;;;;;;;2.30;2.10;;;;;;;26.51;50.21;100015.98;1769735;79;21539;-74
2021/05/28 07:19:01;;;;;;;3.20;2.20;;;;;;;26.43;50.59;100016.59;1744860;80;21049;-70
2021/05/28 07:21:30;;;;;;;2.75;2.30;;;;;;;26.35;51.33;100018.08;1739963;80;21000;-77
2021/05/28 07:23:57;;;;;;;2.15;2.05;;;;;;;26.42;51.21;100010.43;1755277;81;21859;-72
2021/05/28 07:26:24;;;;;;;4.75;1.92;;;;;;;26.62;51.77;100007.98;1747431;79;21769;-74
2021/05/28 07:28:53;;;;;;;2.58;2.22;;;;;;;26.87;51.88;100011.08;1757738;80;20959;-72
2021/05/28 07:31:24;;;;;;;3.77;2.35;;;;;;;27.05;51.45;100003.97;1726936;82;20970;-73
2021/05/28 07:33:51;;;;;;;1.82;1.72;;;;;;;27.17;51.53;100001.09;1730212;82;21044;-71
2021/05/28 07:36:21;;;;;;;2.40;2.20;;;;;;;27.36;50.79;100007.08;1731446;82;21619;-70
2021/05/28 07:38:47;;;;;;;4.62;2.40;;;;;;;27.53;49.77;100006.27;1744105;81;21610;-75
2021/05/28 07:41:15;;;;;;;8.33;2.50;;;;;;;27.53;50.21;100000.92;1760231;80;21052;-69
2021/05/28 07:43:42;;;;;;;2.85;1.98;;;;;;;27.47;49.62;99993.17;1764135;79;21638;-77
2021/05/28 07:46:09;;;;;;;3.80;2.00;;;;;;;27.45;50.42;99999.23;1757585;80;20925;-71
2021/05/28 07:48:37;;;;;;;3.00;1.80;;;;;;;27.63;49.95;99996.56;1761501;79;21238;-71
2021/05/28 07:51:04;;;;;;;2.12;2.02;;;;;;;27.87;49.41;99997.42;1738682;81;20963;-72
2021/05/28 07:53:32;;;;;;;2.55;1.90;;;;;;;28.03;47.74;99996.23;1731533;80;20933;-75
2021/05/28 07:56:05;;;;;;;2.27;2.08;;;;;;;28.04;46.64;99997.89;1725819;81;20978;-73
2021/05/28 07:58:33;;;;;;;3.20;2.00;;;;;;;27.82;46.92;99995.86;1735712;81;20989;-74
2021/05/28 08:01:01;;;;;;;2.37;2.17;;;;;;;27.56;48.00;100003.20;1739466;81;21126;-68
2021/05/28 08:03:28;;;;;;;3.55;2.30;;;;;;;27.40;48.15;99997.64;1738895;81;21541;-74
2021/05/28 08:05:55;;;;;;;4.25;2.30;;;;;;;27.29;48.37;100004.04;1735945;82;20969;-69
2021/05/28 08:08:26;;;;;;;3.27;2.55;;;;;;;27.15;47.88;99997.28;1718220;82;21017;-69
2021/05/28 08:10:52;;;;;;;3.00;2.47;;;;;;;27.04;47.78;99995.13;1741543;82;21013;-69
2021/05/28 08:13:21;;;;;;;3.08;2.62;;;;;;;26.91;47.95;99995.80;1741638;82;21947;-76
2021/05/28 08:15:53;;;;;;;2.92;2.72;;;;;;;26.78;47.78;99998.89;1772747;80;21007;-74
2021/05/28 08:18:22;;;;;;;2.50;2.27;;;;;;;26.57;48.07;100000.53;1774122;80;21050;-78
2021/05/28 08:20:51;;;;;;;4.60;2.45;;;;;;;26.41;48.85;100002.09;1758967;80;21081;-77
2021/05/28 08:23:20;;;;;;;2.85;2.62;;;;;;;26.35;49.71;99996.72;1750328;80;20983;-84
2021/05/28 08:25:49;;;;;;;3.65;3.02;;;;;;;26.32;50.37;99995.25;1730145;82;21063;-81
2021/05/28 08:28:18;;;;;;;2.60;2.40;;;;;;;26.29;50.64;99991.59;1736030;82;21025;-74
2021/05/28 08:30:46;;;;;;;6.10;2.42;;;;;;;26.32;51.24;99988.58;1736487;82;21528;-71
2021/05/28 08:33:13;;;;;;;3.25;2.25;;;;;;;26.48;51.96;99984.81;1726478;81;21645;-70
2021/05/28 08:35:41;;;;;;;3.25;2.20;;;;;;;26.66;51.74;99983.88;1742480;82;20956;-71
2021/05/28 08:38:10;;;;;;;6.50;2.50;;;;;;;26.80;51.79;99987.47;1732179;80;21095;-74
2021/05/28 08:40:37;;;;;;;2.12;2.02;;;;;;;26.88;51.78;99982.83;1725710;82;20923;-73
2021/05/28 08:43:06;;;;;;;2.75;2.30;;;;;;;26.87;51.18;99985.69;1739371;82;20973;-78
2021/05/28 08:45:42;;;;;;;2.67;2.35;;;;;;;26.83;50.82;99987.92;1737704;82;21021;-76
2021/05/28 08:48:12;;;;;;;2.25;2.05;;;;;;;26.79;50.57;99984.52;1727351;81;21477;-76
2021/05/28 08:50:40;;;;;;;2.55;1.98;;;;;;;26.76;50.72;99984.39;1739696;80;21312;-74
2021/05/28 08:53:09;;;;;;;3.30;2.20;;;;;;;26.73;51.80;99982.09;1731062;81;21045;-83
2021/05/28 08:55:38;;;;;;;4.05;2.20;;;;;;;26.73;52.04;99983.94;1721343;82;21039;-80
2021/05/28 08:58:07;;;;;;;4.78;2.45;;;;;;;26.74;51.80;99981.59;1739820;80;21015;-80
2021/05/28 09:00:35;;;;;;;4.42;2.42;;;;;;;26.76;52.07;99979.55;1732953;81;21006;-75
2021/05/28 09:03:28;;;;;;;2.72;2.25;;;;;;;26.75;51.64;99981.91;1729320;82;21054;-80
2021/05/28 09:06:16;;;;;;;3.85;2.52;;;;;;;26.72;51.99;99983.11;1809453;79;21013;-71
2021/05/28 09:08:45;;;;;;;3.52;2.50;;;;;;;26.66;52.45;99987.88;1799194;78;21005;-71
2021/05/28 09:11:18;;;;;;;3.45;2.25;;;;;;;26.55;52.55;99987.05;1742897;82;21048;-72
2021/05/28 09:13:49;;;;;;;5.47;2.52;;;;;;;26.40;52.60;99988.43;1740268;82;21623;-72
2021/05/28 09:16:30;;;;;;;2.75;2.27;;;;;;;26.22;52.40;99985.34;1744413;81;20973;-71
2021/05/28 09:18:58;;;;;;;2.52;2.33;;;;;;;26.05;52.48;99990.57;1731518;80;21032;-70
2021/05/28 09:21:32;;;;;;;3.02;2.27;;;;;;;25.89;52.13;99989.79;1798986;77;20964;-71
2021/05/28 09:24:01;;;;;;;2.55;2.35;;;;;;;25.76;52.42;99990.94;1811685;77;20988;-70
2021/05/28 09:26:30;;;;;;;3.40;2.65;;;;;;;25.62;51.97;99994.40;1805302;78;21522;-72
2021/05/28 09:28:57;;;;;;;3.80;3.22;;;;;;;25.45;51.92;99988.44;1804795;78;21026;-73
2021/05/28 09:31:27;;;;;;;4.83;3.15;;;;;;;25.30;51.92;99996.09;1797100;78;20991;-71
2021/05/28 09:33:56;;;;;;;4.72;3.20;;;;;;;25.10;53.10;99999.80;1796345;78;20984;-81
2021/05/28 09:36:31;;;;;;;3.40;3.20;;;;;;;24.93;54.06;99992.41;1797601;77;21533;-81
2021/05/28 09:39:07;;;;;;;5.40;3.62;;;;;;;24.84;54.42;99994.30;1805973;78;20948;-73
2021/05/28 09:41:56;;;;;;;3.83;3.52;;;;;;;24.83;54.44;99991.31;1808769;78;21690;-77
2021/05/28 09:44:27;;;;;;;3.85;3.55;;;;;;;24.95;55.02;99990.39;1810947;78;20960;-76
2021/05/28 09:47:04;;;;;;;3.30;3.10;;;;;;;25.10;55.66;99985.97;1808309;78;21008;-72
2021/05/28 09:49:36;;;;;;;9.03;3.30;;;;;;;25.35;55.66;99984.38;1743238;81;21051;-70
2021/05/28 09:52:13;;;;;;;3.50;3.20;;;;;;;25.60;55.20;99981.75;1734280;82;20985;-73
2021/05/28 09:55:05;;;;;;;3.80;3.50;;;;;;;25.80;55.52;99973.55;1739282;80;21112;-73
2021/05/28 09:57:36;;;;;;;4.00;3.70;;;;;;;25.99;55.36;99979.34;1742794;80;21558;-71
2021/05/28 10:00:12;;;;;;;5.42;3.65;;;;;;;26.15;54.32;99970.58;1750309;80;21033;-68
2021/05/28 10:02:45;;;;;;;4.42;3.70;;;;;;;26.23;54.08;99966.47;1761506;80;21670;-79
2021/05/28 10:05:21;;;;;;;3.47;3.15;;;;;;;26.31;52.96;99962.89;1745729;80;21053;-72
2021/05/28 10:07:49;;;;;;;4.35;3.30;;;;;;;26.31;51.97;99965.56;1750865;80;21067;-72
2021/05/28 10:10:17;;;;;;;6.10;3.33;;;;;;;26.26;51.66;99965.27;1762536;80;20950;-70
2021/05/28 10:12:48;;;;;;;3.95;3.65;;;;;;;26.19;52.00;99961.19;1747803;82;21002;-71
2021/05/28 10:15:15;;;;;;;5.40;3.62;;;;;;;26.10;52.71;99951.63;1747842;82;20981;-71
2021/05/28 10:17:42;;;;;;;4.05;3.75;;;;;;;26.02;52.80;99961.59;1748112;82;21495;-71
2021/05/28 10:20:10;;;;;;;4.20;3.60;;;;;;;25.92;53.15;99952.57;1747753;82;21012;-71
2021/05/28 10:22:37;;;;;;;4.00;3.70;;;;;;;25.88;52.37;99952.63;1747188;82;21646;-71
2021/05/28 10:25:06;;;;;;;3.75;3.42;;;;;;;25.81;51.87;99957.88;1747340;82;21073;-71
2021/05/28 10:27:33;;;;;;;4.42;3.72;;;;;;;25.76;51.90;99958.10;1747645;82;21534;-71
2021/05/28 10:30:11;;;;;;;4.15;3.58;;;;;;;25.71;53.09;99953.33;1747622;82;21018;-71
2021/05/28 10:32:38;;;;;;;3.98;3.58;;;;;;;25.68;53.04;99956.36;1746774;82;21642;-71
2021/05/28 10:35:17;;;;;;;3.70;3.40;;;;;;;25.60;53.26;99954.58;1746700;82;20923;-71
2021/05/28 10:37:46;;;;;;;3.67;3.37;;;;;;;25.48;52.90;99954.75;1747048;82;20950;-70
2021/05/28 10:40:30;;;;;;;3.70;3.37;;;;;;;25.39;53.17;99955.84;1747671;82;21582;-71
2021/05/28 10:43:06;;;;;;;5.12;4.35;;;;;;;25.28;53.86;99947.47;1747766;82;20954;-70
2021/05/28 10:45:58;;;;;;;4.20;3.87;;;;;;;25.20;53.84;99948.37;1747848;82;21052;-70
2021/05/28 10:48:43;;;;;;;6.47;3.80;;;;;;;25.11;54.47;99946.33;1747629;82;21026;-71
2021/05/28 10:51:13;;;;;;;6.67;3.42;;;;;;;25.06;54.69;99942.55;1748155;82;20970;-70
2021/05/28 10:53:54;;;;;;;3.90;3.60;;;;;;;25.01;54.36;99941.75;1747753;82;20926;-71
2021/05/28 10:56:30;;;;;;;7.35;3.42;;;;;;;24.97;54.21;99938.30;1745838;80;21033;-71
2021/05/28 10:59:06;;;;;;;3.77;3.47;;;;;;;24.90;54.57;99940.82;1722817;82;21327;-70
2021/05/28 11:01:51;;;;;;;3.85;3.47;;;;;;;24.88;54.63;99936.17;1748106;80;21040;-71
2021/05/28 11:04:24;;;;;;;3.67;3.37;;;;;;;24.79;55.26;99922.63;1757674;80;21543;-73
2021/05/28 11:07:03;;;;;;;6.75;3.17;;;;;;;24.67;55.54;99924.89;1752069;81;21069;-72
2021/05/28 11:09:51;;;;;;;5.05;3.30;;;;;;;24.59;55.85;99919.13;1751105;81;21118;-71
2021/05/28 11:12:29;;;;;;;3.33;3.02;;;;;;;24.57;56.10;99917.65;1753732;81;21538;-66
2021/05/28 11:15:10;;;;;;;3.02;2.83;;;;;;;24.50;55.67;99917.53;1756220;80;20938;-68
2021/05/28 11:18:00;;;;;;;4.00;3.00;;;;;;;24.37;55.69;99917.33;1722813;81;21435;-78
2021/05/28 11:20:37;;;;;;;4.10;3.20;;;;;;;24.24;55.83;99913.88;1754124;79;21007;-76
2021/05/28 11:23:15;;;;;;;4.40;3.20;;;;;;;24.14;56.71;99905.30;1764294;79;21032;-73
2021/05/28 11:25:51;;;;;;;5.05;3.45;;;;;;;24.15;56.71;99893.65;1804337;78;21048;-74
2021/05/28 11:28:19;;;;;;;7.95;3.72;;;;;;;24.17;56.85;99894.80;1799122;79;20905;-78
2021/05/28 11:30:56;;;;;;;5.75;3.50;;;;;;;24.21;56.77;99890.78;1800457;77;21015;-74
2021/05/28 11:33:38;;;;;;;5.45;3.72;;;;;;;24.24;56.77;99891.77;1798942;78;21039;-71
2021/05/28 11:36:30;;;;;;;6.70;3.90;;;;;;;24.26;56.79;99892.45;1797729;78;20996;-70
2021/05/28 11:39:04;;;;;;;3.95;3.55;;;;;;;24.25;56.86;99885.47;1796573;77;21053;-66
2021/05/28 11:42:03;;;;;;;4.35;3.35;;;;;;;24.23;56.22;99875.47;1793502;79;20977;-69
2021/05/28 11:44:32;;;;;;;4.20;3.77;;;;;;;24.20;55.79;99871.33;1792152;79;20877;-70
2021/05/28 11:47:02;;;;;;;5.28;3.30;;;;;;;24.19;55.96;99866.19;1799165;79;20960;-74
2021/05/28 11:49:29;;;;;;;3.92;3.65;;;;;;;24.18;56.21;99862.70;1807477;77;20960;-77
2021/05/28 11:52:05;;;;;;;4.10;3.70;;;;;;;24.17;56.51;99861.05;1799973;79;21141;-75
2021/05/28 11:54:34;;;;;;;4.37;3.65;;;;;;;24.13;56.51;99856.25;1791651;77;20968;-70
2021/05/28 11:57:05;;;;;;;4.60;4.20;;;;;;;24.00;56.65;99854.67;1781878;78;21693;-76
2021/05/28 11:59:57;;;;;;;5.35;3.98;;;;;;;23.82;57.44;99853.64;1795823;78;21051;-71
2021/05/28 12:02:52;;;;;;;4.17;3.80;;;;;;;23.66;57.93;99854.56;1791542;78;21063;-77
2021/05/28 12:05:31;;;;;;;5.22;4.15;;;;;;;23.58;58.37;99847.98;1789591;78;21061;-76
2021/05/28 12:08:03;;;;;;;5.05;4.20;;;;;;;23.51;58.16;99849.14;1794199;78;21000;-74
2021/05/28 12:10:30;;;;;;;8.65;4.95;;;;;;;23.48;58.50;99849.48;1789555;77;21013;-76
2021/05/28 12:13:03;;;;;;;7.65;4.40;;;;;;;23.47;58.97;99842.52;1798640;79;21645;-74
2021/05/28 12:15:39;;;;;;;4.25;3.92;;;;;;;23.48;58.90;99844.17;1800127;79;21550;-78
2021/05/28 12:18:31;;;;;;;4.80;4.33;;;;;;;23.44;57.66;99845.52;1803215;77;21090;-75
2021/05/28 12:21:09;;;;;;;5.90;4.75;;;;;;;23.32;57.98;99846.89;1796710;79;20969;-75
2021/05/28 12:23:50;;;;;;;4.62;4.22;;;;;;;23.25;58.97;99842.77;1797596;79;21160;-74
2021/05/28 12:26:30;;;;;;;6.15;4.12;;;;;;;23.26;59.38;99844.42;1802121;79;20921;-77
2021/05/28 12:28:58;;;;;;;4.62;4.17;;;;;;;23.22;58.46;99847.09;1801153;79;20897;-75
2021/05/28 12:31:36;;;;;;;7.58;4.30;;;;;;;23.21;59.42;99846.76;1798542;77;21050;-74
2021/05/28 12:34:09;;;;;;;4.55;3.90;;;;;;;23.24;59.00;99846.92;1797076;79;21570;-82
2021/05/28 12:36:46;;;;;;;8.03;4.28;;;;;;;23.26;58.86;99835.13;1796795;78;21677;-77
2021/05/28 12:39:20;;;;;;;8.00;4.33;;;;;;;23.26;58.59;99836.45;1794729;78;21633;-79
2021/05/28 12:41:50;;;;;;;4.72;4.35;;;;;;;23.19;58.52;99832.02;1794115;77;20964;-74
2021/05/28 12:44:21;;;;;;;5.53;4.90;;;;;;;23.14;58.56;99835.69;1799523;78;20957;-74
2021/05/28 12:46:58;;;;;;;5.65;4.30;;;;;;;23.04;58.64;99834.55;1782178;78;20969;-69
2021/05/28 12:49:30;;;;;;;5.28;4.47;;;;;;;22.97;59.48;99836.73;1801015;78;20999;-72
2021/05/28 12:51:57;;;;;;;5.28;4.67;;;;;;;22.91;59.75;99833.75;1791594;77;21066;-72
2021/05/28 12:54:30;;;;;;;5.58;4.53;;;;;;;22.90;59.82;99829.44;1801005;79;22147;-71
2021/05/28 12:56:58;;;;;;;8.73;4.67;;;;;;;22.90;60.63;99828.61;1799740;79;21458;-78
2021/05/28 12:59:31;;;;;;;6.95;4.50;;;;;;;22.87;60.31;99833.76;1726718;82;21062;-73
2021/05/28 13:02:01;;;;;;;4.85;4.45;;;;;;;22.81;60.11;99827.80;1754702;80;21044;-71
2021/05/28 13:04:29;;;;;;;5.30;4.80;;;;;;;22.78;60.32;99825.98;1766565;80;21076;-74
2021/05/28 13:06:59;;;;;;;7.78;5.42;;;;;;;22.77;60.08;99824.32;1743612;80;21053;-76
2021/05/28 13:09:29;;;;;;;5.05;4.53;;;;;;;22.76;60.61;99820.01;1750287;81;21641;-76
2021/05/28 13:12:08;;;;;;;5.22;4.67;;;;;;;22.73;60.15;99817.19;1768213;80;20982;-76
2021/05/28 13:14:50;;;;;;;5.15;4.70;;;;;;;22.72;60.26;99820.02;1754324;81;21004;-69
2021/05/28 13:17:33;;;;;;;7.62;4.65;;;;;;;22.68;60.19;99823.50;1770897;79;20903;-77
2021/05/28 13:20:10;;;;;;;5.17;4.75;;;;;;;22.63;60.18;99823.17;1788400;78;20961;-74
2021/05/28 13:22:48;;;;;;;8.43;4.90;;;;;;;22.59;60.74;99827.98;1786979;78;21641;-72
2021/05/28 13:25:41;;;;;;;5.75;4.17;;;;;;;22.58;60.60;99828.16;1743043;80;21080;-69
2021/05/28 13:28:22;;;;;;;4.92;4.42;;;;;;;22.60;60.71;99832.30;1783189;78;20936;-74
2021/05/28 13:30:58;;;;;;;7.17;4.40;;;;;;;22.60;60.01;99825.67;1774435;79;21038;-72
2021/05/28 13:33:27;;;;;;;5.25;4.50;;;;;;;;;;1769856;78;21028;-72
2021/05/28 13:35:58;;;;;;;8.53;4.60;;;;;;;22.64;59.16;99840.76;1796314;78;21666;-73
2021/05/28 13:38:25;;;;;;;4.55;4.25;;;;;;;22.67;59.32;99835.61;1742647;81;21016;-75
2021/05/28 13:40:53;;;;;;;5.40;4.42;;;;;;;22.71;59.69;99829.80;1768794;80;21044;-72
2021/05/28 13:43:23;;;;;;;4.70;4.20;;;;;;;22.74;60.12;99824.66;1779936;80;21640;-69
2021/05/28 13:45:54;;;;;;;6.28;4.65;;;;;;;22.73;60.54;99823.00;1772105;80;21533;-73
2021/05/28 13:48:21;;;;;;;6.42;5.17;;;;;;;22.71;61.22;99822.34;1776077;80;21158;-73
2021/05/28 13:50:49;;;;;;;4.55;4.22;;;;;;;22.68;60.81;99818.69;1785160;79;20921;-75
2021/05/28 13:53:19;;;;;;;5.62;4.50;;;;;;;22.66;61.06;99811.39;1781506;80;20941;-71
2021/05/28 13:55:46;;;;;;;8.63;4.65;;;;;;;22.63;61.42;99820.02;1778172;80;20985;-76
2021/05/28 13:58:13;;;;;;;5.28;4.22;;;;;;;;;;1776536;80;20973;-76
